Time;durP1;ratioP1;P1;durP2;ratioP2;P2;SDS_P1;SDS_P2;PMS_P1;PMS_P2;Temp;Humidity;BMP_temperature;BMP_pressure;BME280_temperature;BME280_humidity;BME280_pressure;Samples;Min_cycle;Max_cycle;Signal;HPM_P1;HPM_P2
2022/11/01 00:00:06;;;;;;;22.63;16.50;;;13.50;99.90;;;;;;4885189;29;20100;-90
2022/11/01 00:02:32;;;;;;;22.67;17.52;;;13.50;99.90;;;;;;4885150;29;20051;-91
2022/11/01 00:04:58;;;;;;;20.95;15.52;;;13.50;99.90;;;;;;4907374;29;20036;-91
2022/11/01 00:07:23;;;;;;;22.67;15.48;;;13.60;99.90;;;;;;4900668;29;20048;-88
2022/11/01 00:09:49;;;;;;;20.98;16.27;;;13.50;99.90;;;;;;4898751;29;20044;-91
2022/11/01 00:12:15;;;;;;;22.20;15.75;;;13.60;99.90;;;;;;4885718;29;20478;-89
2022/11/01 00:14:40;;;;;;;20.95;15.48;;;13.60;99.90;;;;;;4887665;29;20188;-90
2022/11/01 00:17:06;;;;;;;23.00;15.73;;;13.60;99.90;;;;;;4899459;29;20444;-90
2022/11/01 00:19:32;;;;;;;22.90;15.45;;;13.70;99.90;;;;;;4898349;29;20048;-89
2022/11/01 00:21:57;;;;;;;21.17;15.65;;;13.60;99.90;;;;;;4903100;29;20051;-88
2022/11/01 00:24:24;;;;;;;23.05;16.33;;;13.70;99.90;;;;;;4898454;29;20108;-90
2022/11/01 00:26:50;;;;;;;21.55;15.43;;;13.70;99.90;;;;;;4887921;29;20116;-90
2022/11/01 00:29:16;;;;;;;21.13;15.40;;;13.70;99.90;;;;;;4892769;29;20051;-89
2022/11/01 00:31:41;;;;;;;21.50;14.05;;;13.80;99.90;;;;;;4904344;29;20068;-90
2022/11/01 00:34:07;;;;;;;21.98;14.70;;;13.70;99.90;;;;;;4921589;29;20075;-90
2022/11/01 00:36:34;;;;;;;21.08;14.35;;;13.70;99.90;;;;;;4922771;29;20044;-90
2022/11/01 00:39:00;;;;;;;22.52;14.88;;;13.80;99.90;;;;;;4891302;29;20055;-90
2022/11/01 00:41:26;;;;;;;23.75;14.77;;;13.80;99.90;;;;;;4921378;29;20044;-89
2022/11/01 00:43:52;;;;;;;20.60;13.90;;;13.80;99.90;;;;;;4904595;29;20032;-90
2022/11/01 00:46:17;;;;;;;18.50;13.20;;;13.80;99.90;;;;;;4920342;29;20521;-90
2022/11/01 00:48:43;;;;;;;20.23;14.75;;;13.90;99.90;;;;;;4920453;29;20147;-90
2022/11/01 00:51:09;;;;;;;17.73;13.70;;;13.80;99.90;;;;;;4884824;29;20054;-90
2022/11/01 00:53:35;;;;;;;18.63;13.80;;;13.80;99.90;;;;;;4883772;29;20048;-90
2022/11/01 00:56:05;;;;;;;21.80;14.57;;;13.80;99.90;;;;;;4886793;29;20055;-90
2022/11/01 00:58:31;;;;;;;17.60;13.38;;;13.80;99.90;;;;;;4908915;29;20116;-90
2022/11/01 01:00:57;;;;;;;19.58;13.90;;;13.70;99.90;;;;;;4868058;29;20048;-89
2022/11/01 01:03:23;;;;;;;21.15;13.18;;;13.90;99.90;;;;;;4882166;29;20052;-90
2022/11/01 01:05:50;;;;;;;18.15;12.88;;;13.90;99.90;;;;;;4898616;29;20466;-90
2022/11/01 01:08:16;;;;;;;18.80;13.30;;;13.90;99.90;;;;;;4900526;29;20048;-90
2022/11/01 01:10:42;;;;;;;20.55;13.38;;;13.90;99.90;;;;;;4899799;29;20054;-90
2022/11/01 01:13:07;;;;;;;20.02;12.30;;;14.00;99.90;;;;;;4917190;29;20123;-89
2022/11/01 01:15:33;;;;;;;16.63;13.05;;;14.00;99.90;;;;;;4888847;29;20451;-91
2022/11/01 01:17:59;;;;;;;17.38;12.50;;;14.00;99.90;;;;;;4912975;29;20044;-90
2022/11/01 01:20:24;;;;;;;19.75;12.07;;;14.10;99.90;;;;;;4892984;29;20048;-91
2022/11/01 01:22:50;;;;;;;20.20;12.10;;;14.10;99.90;;;;;;4894845;29;20048;-89
2022/11/01 01:25:16;;;;;;;19.60;12.02;;;14.10;99.90;;;;;;4899621;29;20048;-90
2022/11/01 01:27:42;;;;;;;21.88;13.15;;;14.20;99.90;;;;;;4905067;29;20103;-89
2022/11/01 01:30:08;;;;;;;19.38;11.98;;;14.10;99.90;;;;;;4883468;29;20116;-90
2022/11/01 01:32:34;;;;;;;19.10;13.35;;;14.10;99.90;;;;;;4898033;29;20162;-89
2022/11/01 01:35:00;;;;;;;17.00;12.57;;;14.20;99.90;;;;;;4899079;29;20167;-90
2022/11/01 01:37:25;;;;;;;19.13;12.35;;;14.20;99.90;;;;;;4898918;29;20084;-89
2022/11/01 01:39:51;;;;;;;19.35;12.85;;;14.10;99.90;;;;;;4878161;29;20044;-89
2022/11/01 01:42:38;;;;;;;20.38;12.32;;;14.10;99.90;;;;;;4899185;29;20051;-90
2022/11/01 01:45:04;;;;;;;18.38;12.30;;;14.10;99.90;;;;;;4892490;29;20115;-89
2022/11/01 01:47:31;;;;;;;19.80;12.38;;;14.10;99.90;;;;;;4887895;29;20135;-90
2022/11/01 01:50:16;;;;;;;18.30;12.20;;;14.00;99.90;;;;;;4866638;29;20127;-90
2022/11/01 01:53:21;;;;;;;17.08;11.93;;;14.00;99.90;;;;;;4895414;29;20055;-90
2022/11/01 01:56:10;;;;;;;16.70;11.93;;;14.00;99.90;;;;;;4878362;29;20043;-90
2022/11/01 01:59:00;;;;;;;18.08;12.05;;;14.00;99.90;;;;;;4918909;29;20048;-90
2022/11/01 02:01:27;;;;;;;18.42;11.88;;;14.00;99.90;;;;;;4896728;29;20044;-90
2022/11/01 02:03:52;;;;;;;16.23;11.63;;;14.00;99.90;;;;;;4915929;29;20155;-90
2022/11/01 02:06:20;;;;;;;19.52;12.00;;;14.00;99.90;;;;;;4898244;29;20119;-90
2022/11/01 02:08:52;;;;;;;17.67;11.85;;;14.00;99.90;;;;;;4916332;29;20123;-89
2022/11/01 02:11:19;;;;;;;17.45;11.80;;;14.00;99.90;;;;;;4882012;29;20040;-89
2022/11/01 02:13:45;;;;;;;19.27;12.38;;;14.00;99.90;;;;;;4893426;29;20053;-90
2022/11/01 02:16:45;;;;;;;20.38;12.43;;;14.00;99.90;;;;;;4893386;29;20052;-90
2022/11/01 02:19:30;;;;;;;18.67;11.30;;;14.00;99.90;;;;;;4886406;29;20078;-89
2022/11/01 02:22:13;;;;;;;20.92;12.00;;;14.00;99.90;;;;;;4868602;29;20053;-90
2022/11/01 02:24:51;;;;;;;17.85;11.10;;;14.00;99.90;;;;;;4881237;29;20127;-90
2022/11/01 02:27:23;;;;;;;17.35;10.82;;;14.10;99.90;;;;;;4890101;29;20433;-90
2022/11/01 02:30:17;;;;;;;18.15;11.07;;;14.10;99.90;;;;;;4888925;29;20060;-90
2022/11/01 02:33:05;;;;;;;16.77;11.13;;;14.10;99.90;;;;;;4865567;29;20048;-90
2022/11/01 02:36:03;;;;;;;19.10;11.45;;;14.10;99.90;;;;;;4879300;29;20044;-90
2022/11/01 02:38:42;;;;;;;17.65;10.75;;;14.10;99.90;;;;;;4912592;29;20509;-90
2022/11/01 02:41:19;;;;;;;17.08;11.00;;;14.10;99.90;;;;;;4895941;29;20059;-90
2022/11/01 02:43:53;;;;;;;17.13;10.93;;;14.10;99.90;;;;;;4914909;29;20051;-90
2022/11/01 02:49:06;;;;;;;17.55;10.98;;;14.10;99.90;;;;;;4895773;29;20048;-90
2022/11/01 02:51:34;;;;;;;15.98;10.52;;;14.10;99.90;;;;;;4896713;29;20442;-91
2022/11/01 02:54:04;;;;;;;18.65;10.52;;;14.10;99.90;;;;;;4913328;29;20115;-90
2022/11/01 02:56:30;;;;;;;15.40;10.17;;;14.10;99.90;;;;;;4896366;29;20067;-91
2022/11/01 02:58:56;;;;;;;17.40;10.13;;;14.10;99.90;;;;;;4897171;29;20048;-90
2022/11/01 03:01:25;;;;;;;13.52;9.13;;;14.20;99.90;;;;;;4895401;29;20098;-91
2022/11/01 03:03:54;;;;;;;16.42;9.73;;;14.30;99.90;;;;;;4913659;29;20048;-90
2022/11/01 03:06:31;;;;;;;16.35;9.60;;;14.30;99.90;;;;;;4892430;29;20052;-90
2022/11/01 03:09:01;;;;;;;15.10;8.73;;;14.40;99.90;;;;;;4896309;29;20527;-94
2022/11/01 03:11:54;;;;;;;15.18;8.60;;;14.50;99.90;;;;;;4914588;29;20051;-92
2022/11/01 03:14:22;;;;;;;14.65;8.00;;;14.50;99.90;;;;;;4896807;29;20036;-92
2022/11/01 03:17:01;;;;;;;15.80;8.25;;;14.60;99.90;;;;;;4892626;29;20446;-92
2022/11/01 03:19:49;;;;;;;13.40;7.80;;;14.80;99.90;;;;;;4893035;29;20049;-92
2022/11/01 03:22:42;;;;;;;12.68;7.55;;;14.90;99.90;;;;;;4876137;29;20047;-93
2022/11/01 03:28:05;;;;;;;;;;;15.10;99.90;;;;;;4893878;29;20060;-93
2022/11/01 03:30:33;;;;;;;14.15;7.35;;;15.20;99.90;;;;;;4864054;29;20010;-93
2022/11/01 03:32:59;;;;;;;13.98;7.10;;;15.30;99.90;;;;;;4876667;29;20080;-94
2022/11/01 03:35:35;;;;;;;13.90;7.00;;;15.30;99.90;;;;;;4893582;29;20076;-94
2022/11/01 03:38:05;;;;;;;14.68;7.00;;;15.50;99.90;;;;;;4864298;29;20055;-94
2022/11/01 03:40:33;;;;;;;10.97;6.97;;;15.50;99.90;;;;;;4879368;29;20134;-95
2022/11/01 03:43:04;;;;;;;13.93;6.88;;;15.50;99.90;;;;;;4880749;29;20048;-92
2022/11/01 03:45:34;;;;;;;12.55;7.28;;;15.60;99.90;;;;;;4882564;29;20044;-95
2022/11/01 03:48:00;;;;;;;14.02;8.13;;;15.60;99.90;;;;;;4890802;29;20044;-95
2022/11/01 03:50:27;;;;;;;14.38;6.97;;;15.50;99.90;;;;;;4898228;29;20040;-93
2022/11/01 03:52:53;;;;;;;12.95;7.50;;;15.60;99.90;;;;;;4898379;29;20040;-96
2022/11/01 03:55:20;;;;;;;14.10;7.70;;;15.50;99.90;;;;;;4882832;29;20123;-93
2022/11/01 03:57:52;;;;;;;14.90;7.40;;;15.50;99.90;;;;;;4908822;29;20043;-93
2022/11/01 04:00:42;;;;;;;12.88;7.32;;;15.50;99.90;;;;;;4889737;29;20063;-93
2022/11/01 04:03:09;;;;;;;14.17;6.90;;;15.60;99.90;;;;;;4882157;29;20081;-94
2022/11/01 04:05:37;;;;;;;13.73;6.88;;;15.50;99.90;;;;;;4880333;29;20041;-96
2022/11/01 04:08:03;;;;;;;15.52;7.80;;;15.50;99.90;;;;;;4899743;29;20036;-93
2022/11/01 04:10:29;;;;;;;10.75;6.68;;;15.60;99.90;;;;;;4897487;29;20127;-93
2022/11/01 04:12:56;;;;;;;14.10;6.78;;;15.60;99.90;;;;;;4895437;29;20131;-93
2022/11/01 04:21:15;;;;;;;14.23;7.10;;;15.70;99.90;;;;;;4884577;29;20044;-95
2022/11/01 04:23:45;;;;;;;12.50;7.03;;;15.80;99.90;;;;;;4869762;29;20390;-96
2022/11/01 04:26:13;;;;;;;14.05;6.50;;;15.70;99.90;;;;;;4873211;29;20056;-94
2022/11/01 04:28:39;;;;;;;12.75;6.88;;;15.70;99.90;;;;;;4883893;29;20050;-92
2022/11/01 04:31:05;;;;;;;10.02;6.05;;;15.70;99.90;;;;;;4893507;29;20043;-94
2022/11/01 04:33:31;;;;;;;13.27;6.80;;;15.80;99.90;;;;;;4886961;29;20044;-95
2022/11/01 04:35:56;;;;;;;11.35;6.60;;;15.80;99.90;;;;;;4886182;29;20094;-95
2022/11/01 04:38:22;;;;;;;12.38;6.35;;;15.80;99.90;;;;;;4887738;29;20048;-93
2022/11/01 04:40:49;;;;;;;13.02;6.32;;;15.90;99.90;;;;;;4899185;29;20040;-95
2022/11/01 04:43:15;;;;;;;13.20;6.38;;;15.90;99.90;;;;;;4871982;29;20051;-96
2022/11/01 04:45:40;;;;;;;12.07;6.13;;;16.00;99.90;;;;;;4879599;29;20040;-95
2022/11/01 04:48:12;;;;;;;13.00;6.43;;;16.00;99.90;;;;;;4874169;29;20032;-93
2022/11/01 04:50:39;;;;;;;15.98;6.40;;;16.00;99.90;;;;;;4893593;29;20047;-94
2022/11/01 04:53:05;;;;;;;14.60;6.57;;;16.00;99.90;;;;;;4887695;29;20072;-94
2022/11/01 04:55:31;;;;;;;11.65;6.47;;;16.00;99.90;;;;;;4884017;29;21426;-95
2022/11/01 04:57:57;;;;;;;12.90;6.15;;;16.00;99.90;;;;;;4882846;29;20421;-94
2022/11/01 05:00:24;;;;;;;13.60;6.60;;;16.00;99.90;;;;;;4882939;29;20036;-97
2022/11/01 05:02:50;;;;;;;12.63;5.75;;;16.00;99.90;;;;;;4902791;29;20048;-95
2022/11/01 05:05:17;;;;;;;13.40;6.47;;;16.10;99.90;;;;;;4875048;29;20135;-95
2022/11/01 05:07:43;;;;;;;11.00;5.93;;;16.10;99.90;;;;;;4902493;29;20039;-93
2022/11/01 05:10:09;;;;;;;10.48;6.00;;;16.20;99.90;;;;;;4876199;29;20119;-96
2022/11/01 05:12:35;;;;;;;11.27;6.05;;;16.20;99.90;;;;;;4892370;29;20037;-95
2022/11/01 05:15:04;;;;;;;12.05;5.72;;;16.20;99.90;;;;;;4884725;29;20040;-94
2022/11/01 05:17:30;;;;;;;12.73;6.10;;;16.10;99.90;;;;;;4888288;29;20044;-95
2022/11/01 05:19:55;;;;;;;10.98;6.15;;;16.20;99.90;;;;;;4903013;29;20230;-96
2022/11/01 05:22:21;;;;;;;12.00;5.80;;;16.20;99.90;;;;;;4920390;29;20047;-94
2022/11/01 05:24:47;;;;;;;12.90;5.68;;;16.20;99.90;;;;;;4901659;29;20048;-93
2022/11/01 05:27:16;;;;;;;12.27;5.75;;;16.20;99.90;;;;;;4875508;29;20096;-95
2022/11/01 05:29:41;;;;;;;12.10;5.90;;;16.20;99.90;;;;;;4882004;29;20048;-94
2022/11/01 05:32:07;;;;;;;12.35;5.78;;;16.20;99.90;;;;;;4900970;29;20035;-93
2022/11/01 05:34:33;;;;;;;11.93;5.60;;;16.20;99.90;;;;;;4888252;29;20142;-95
2022/11/01 05:36:58;;;;;;;10.73;5.85;;;16.20;99.90;;;;;;4902520;29;20044;-93
2022/11/01 05:39:24;;;;;;;11.95;5.95;;;16.20;99.90;;;;;;4934817;29;20035;-95
2022/11/01 05:41:50;;;;;;;11.70;5.65;;;16.30;99.90;;;;;;4918656;29;20103;-95
2022/11/01 05:44:15;;;;;;;14.38;5.97;;;16.20;99.90;;;;;;4897504;29;20529;-95
2022/11/01 05:46:41;;;;;;;11.45;6.00;;;16.20;99.90;;;;;;4876341;29;20049;-95
2022/11/01 05:49:09;;;;;;;14.02;5.85;;;16.30;99.90;;;;;;4878433;29;20047;-95
2022/11/01 05:51:34;;;;;;;10.18;4.60;;;16.20;99.90;;;;;;4877048;29;20397;-96
2022/11/01 05:54:00;;;;;;;10.82;4.70;;;16.30;99.90;;;;;;4870125;29;20038;-93
2022/11/01 05:56:25;;;;;;;9.80;3.75;;;16.20;99.90;;;;;;4866678;29;20040;-93
2022/11/01 05:58:51;;;;;;;8.88;2.53;;;16.20;99.90;;;;;;4861540;29;20073;-93
2022/11/01 06:01:17;;;;;;;9.70;2.92;;;16.10;99.90;;;;;;4894376;29;20508;-96
2022/11/01 06:03:49;;;;;;;6.97;1.77;;;15.90;99.90;;;;;;4895420;29;20072;-95
2022/11/01 06:06:15;;;;;;;7.65;1.70;;;15.80;99.90;;;;;;4886291;29;20051;-94
2022/11/01 06:08:41;;;;;;;6.80;1.60;;;15.70;99.90;;;;;;4893340;29;20091;-92
2022/11/01 06:11:06;;;;;;;5.32;1.60;;;15.70;99.90;;;;;;4889708;29;20039;-93
2022/11/01 06:13:32;;;;;;;9.00;2.30;;;15.50;99.90;;;;;;4893608;29;20449;-94
2022/11/01 06:15:59;;;;;;;7.30;1.55;;;15.40;99.90;;;;;;4884376;29;20043;-93
2022/11/01 06:18:25;;;;;;;5.93;1.55;;;15.40;99.90;;;;;;4898486;29;20513;-92
2022/11/01 06:20:51;;;;;;;7.18;1.55;;;15.30;99.90;;;;;;4908838;29;20123;-91
2022/11/01 06:23:17;;;;;;;5.97;1.80;;;15.20;99.90;;;;;;4920044;29;20083;-93
2022/11/01 06:25:45;;;;;;;7.00;1.80;;;15.10;99.90;;;;;;4892562;29;20052;-93
2022/11/01 06:28:11;;;;;;;5.07;1.48;;;15.10;99.90;;;;;;4879542;29;20040;-94
2022/11/01 06:30:37;;;;;;;5.43;1.73;;;15.10;99.90;;;;;;4908781;29;20114;-93
2022/11/01 06:33:05;;;;;;;5.35;2.10;;;15.00;99.90;;;;;;4885571;29;20545;-95
2022/11/01 06:35:31;;;;;;;6.65;1.85;;;15.00;99.90;;;;;;4871716;29;20050;-96
2022/11/01 06:38:08;;;;;;;6.68;1.90;;;15.00;99.90;;;;;;4881219;29;20044;-93
2022/11/01 06:40:35;;;;;;;5.30;2.13;;;15.00;99.90;;;;;;4916661;29;20051;-96
2022/11/01 06:43:02;;;;;;;4.72;2.00;;;14.90;99.90;;;;;;4875528;29;20052;-95
2022/11/01 06:45:31;;;;;;;6.55;2.22;;;15.00;99.90;;;;;;4877088;29;20052;-96
2022/11/01 06:48:00;;;;;;;5.72;1.77;;;14.90;99.90;;;;;;4893531;29;20044;-94
2022/11/01 06:50:26;;;;;;;5.68;2.10;;;14.90;99.90;;;;;;4889213;29;20504;-95
2022/11/01 06:52:57;;;;;;;5.60;2.10;;;14.90;99.90;;;;;;4894961;29;20053;-95
2022/11/01 06:55:27;;;;;;;5.45;1.92;;;14.90;99.90;;;;;;4880876;29;20473;-95
2022/11/01 06:57:58;;;;;;;4.85;1.63;;;14.80;99.90;;;;;;4883188;29;20020;-96
2022/11/01 07:00:25;;;;;;;5.57;1.70;;;14.70;99.90;;;;;;4901322;29;20123;-96
2022/11/01 07:03:03;;;;;;;7.53;1.58;;;14.60;99.90;;;;;;4877205;29;20164;-92
2022/11/01 07:05:30;;;;;;;11.20;1.90;;;14.60;99.90;;;;;;4875043;29;20052;-94
2022/11/01 07:07:56;;;;;;;6.95;1.70;;;14.60;99.90;;;;;;4897247;29;20056;-93
2022/11/01 07:10:34;;;;;;;6.80;1.58;;;14.60;99.90;;;;;;4901476;29;20025;-96
2022/11/01 07:13:01;;;;;;;6.35;1.58;;;14.60;99.90;;;;;;4881030;29;20036;-96
2022/11/01 07:15:28;;;;;;;6.47;1.70;;;14.50;99.90;;;;;;4875367;29;20048;-96
2022/11/01 07:17:55;;;;;;;7.25;2.10;;;14.50;99.90;;;;;;4880227;29;20040;-93
2022/11/01 07:20:26;;;;;;;4.65;1.45;;;14.40;99.90;;;;;;4886303;29;20054;-94
2022/11/01 07:23:03;;;;;;;7.82;1.45;;;14.40;99.90;;;;;;4899603;29;20080;-96
2022/11/01 07:25:30;;;;;;;4.68;1.23;;;14.40;99.90;;;;;;4881935;29;20389;-93
2022/11/01 07:27:56;;;;;;;5.82;1.35;;;14.30;99.90;;;;;;4886360;29;20059;-94
2022/11/01 07:30:23;;;;;;;7.30;1.70;;;14.40;99.90;;;;;;4902448;29;20046;-93
2022/11/01 07:32:58;;;;;;;6.38;1.60;;;14.40;99.90;;;;;;4904671;29;20051;-96
2022/11/01 07:35:25;;;;;;;5.43;1.50;;;14.40;99.90;;;;;;4895550;29;20047;-96
2022/11/01 07:37:52;;;;;;;5.43;1.30;;;14.40;99.90;;;;;;4886669;29;20056;-94
2022/11/01 07:40:18;;;;;;;5.28;1.30;;;14.50;99.90;;;;;;4876971;29;20400;-95
2022/11/01 07:42:44;;;;;;;4.90;1.40;;;14.50;99.90;;;;;;4891065;29;20067;-95
2022/11/01 07:45:11;;;;;;;7.47;1.60;;;14.60;99.90;;;;;;4881475;29;20040;-92
2022/11/01 07:47:37;;;;;;;8.05;1.63;;;14.70;99.90;;;;;;4880913;29;20441;-91
2022/11/01 07:50:04;;;;;;;7.28;1.77;;;14.70;99.90;;;;;;4896571;29;20032;-94
2022/11/01 07:52:30;;;;;;;11.73;1.70;;;14.70;99.90;;;;;;4893673;29;20047;-89
2022/11/01 07:54:56;;;;;;;7.75;1.85;;;14.70;99.90;;;;;;4879225;29;20117;-90
2022/11/01 07:57:21;;;;;;;10.38;2.15;;;14.70;99.90;;;;;;4870534;29;20702;-94
2022/11/01 07:59:47;;;;;;;7.65;1.75;;;14.70;99.90;;;;;;4868186;29;20052;-93
2022/11/01 08:02:15;;;;;;;11.20;2.17;;;14.60;99.90;;;;;;4911307;29;20107;-94
2022/11/01 08:04:41;;;;;;;6.45;1.67;;;14.70;99.90;;;;;;4879375;29;20063;-90
2022/11/01 08:07:07;;;;;;;7.50;2.15;;;14.60;99.90;;;;;;4891958;29;20120;-91
2022/11/01 08:09:32;;;;;;;9.77;1.80;;;14.60;99.90;;;;;;4882511;29;20049;-93
2022/11/01 08:11:58;;;;;;;9.30;1.73;;;14.60;99.90;;;;;;4870181;29;20048;-96
2022/11/01 08:14:24;;;;;;;8.65;2.08;;;14.60;99.90;;;;;;4886597;29;20067;-88
2022/11/01 08:16:54;;;;;;;8.75;2.15;;;14.60;99.90;;;;;;4894248;29;20052;-92
2022/11/01 08:19:20;;;;;;;14.10;2.87;;;14.70;99.90;;;;;;4883126;29;20044;-92
2022/11/01 08:21:49;;;;;;;9.07;2.20;;;14.80;99.90;;;;;;4915099;29;20390;-93
2022/11/01 08:24:15;;;;;;;10.98;2.30;;;14.90;99.90;;;;;;4888681;29;20048;-91
2022/11/01 08:26:40;;;;;;;12.60;2.80;;;14.90;99.90;;;;;;4895480;29;20052;-94
2022/11/01 08:29:06;;;;;;;11.60;2.42;;;14.90;99.90;;;;;;4893824;29;20048;-91
2022/11/01 08:31:32;;;;;;;12.13;2.60;;;15.00;99.90;;;;;;4926448;29;20036;-91
2022/11/01 08:34:01;;;;;;;11.52;2.63;;;15.00;99.90;;;;;;4906302;29;20107;-95
2022/11/01 08:36:32;;;;;;;10.90;2.50;;;15.00;99.90;;;;;;4879075;29;20047;-95
2022/11/01 08:38:58;;;;;;;11.23;2.67;;;14.90;99.90;;;;;;4906071;29;20043;-90
2022/11/01 08:41:24;;;;;;;12.90;2.63;;;14.90;99.90;;;;;;4918083;29;20040;-94
2022/11/01 08:43:50;;;;;;;16.92;3.30;;;15.00;99.90;;;;;;4904831;29;20059;-95
2022/11/01 08:46:15;;;;;;;13.57;2.60;;;15.00;99.90;;;;;;4886852;29;20075;-95
2022/11/01 08:48:41;;;;;;;11.85;2.85;;;15.10;99.90;;;;;;4905117;29;20062;-94
2022/11/01 08:51:07;;;;;;;15.80;3.70;;;15.10;99.90;;;;;;4879716;29;20055;-94
2022/11/01 08:53:33;;;;;;;11.70;2.80;;;15.10;99.90;;;;;;4904031;29;20032;-95
2022/11/01 08:55:58;;;;;;;13.20;2.92;;;15.00;99.90;;;;;;4885180;29;20528;-93
2022/11/01 08:58:24;;;;;;;13.38;3.22;;;15.00;99.90;;;;;;4903073;29;20059;-94
2022/11/01 09:00:50;;;;;;;15.77;3.00;;;15.00;99.90;;;;;;4903121;29;20044;-95
2022/11/01 09:03:18;;;;;;;12.48;3.17;;;15.00;99.90;;;;;;4878600;29;20053;-92
2022/11/01 09:05:44;;;;;;;14.55;2.88;;;15.00;99.90;;;;;;4898071;29;20075;-96
2022/11/01 09:08:09;;;;;;;15.15;3.00;;;15.00;99.90;;;;;;4917214;29;20036;-95
2022/11/01 09:10:35;;;;;;;13.98;3.13;;;15.00;99.90;;;;;;4887398;29;20044;-96
2022/11/01 09:13:01;;;;;;;13.95;3.03;;;15.00;99.90;;;;;;4888268;29;20429;-96
2022/11/01 09:15:27;;;;;;;13.68;2.92;;;15.00;99.90;;;;;;4884779;29;20048;-95
2022/11/01 09:17:53;;;;;;;16.98;3.47;;;15.00;99.90;;;;;;4904573;29;20409;-96
2022/11/01 09:20:19;;;;;;;11.85;2.88;;;15.10;99.90;;;;;;4879308;29;20036;-94
2022/11/01 09:22:48;;;;;;;18.38;3.78;;;15.00;99.90;;;;;;4910002;29;20044;-95
2022/11/01 09:25:14;;;;;;;12.63;2.85;;;15.00;99.90;;;;;;4874115;29;20053;-96
2022/11/01 09:27:40;;;;;;;15.05;4.28;;;15.00;99.90;;;;;;4898372;29;20060;-94
2022/11/01 09:30:06;;;;;;;16.58;3.72;;;15.00;99.90;;;;;;4900218;29;20048;-96
2022/11/01 09:32:31;;;;;;;12.13;3.10;;;15.00;99.90;;;;;;4879088;29;20532;-94
2022/11/01 09:34:57;;;;;;;12.48;3.20;;;15.00;99.90;;;;;;4877080;29;20036;-94
2022/11/01 09:37:23;;;;;;;13.30;3.00;;;15.00;99.90;;;;;;4907750;29;20041;-95
2022/11/01 09:39:48;;;;;;;13.93;3.28;;;15.10;99.90;;;;;;4879569;29;20043;-94
2022/11/01 09:42:27;;;;;;;11.70;3.20;;;15.20;99.90;;;;;;4886650;29;20474;-95
2022/11/01 09:44:55;;;;;;;16.80;3.30;;;15.20;99.90;;;;;;4901015;29;20039;-95
2022/11/01 09:47:24;;;;;;;16.67;3.15;;;15.20;99.90;;;;;;4896319;29;20041;-96
2022/11/01 09:49:59;;;;;;;13.52;2.55;;;15.20;99.90;;;;;;4881026;29;20394;-94
2022/11/01 09:52:25;;;;;;;13.63;3.20;;;15.20;99.90;;;;;;4872745;29;20060;-93
2022/11/01 09:54:51;;;;;;;14.27;3.20;;;15.20;99.90;;;;;;4892892;29;20040;-94
2022/11/01 09:57:31;;;;;;;13.95;3.67;;;15.20;99.90;;;;;;4888990;29;20070;-94
2022/11/01 10:00:12;;;;;;;15.68;2.95;;;15.20;99.90;;;;;;4901831;29;20041;-94
2022/11/01 10:03:01;;;;;;;15.52;3.28;;;15.20;99.90;;;;;;4869288;29;21715;-95
2022/11/01 10:05:45;;;;;;;16.10;3.17;;;15.30;99.90;;;;;;4902101;29;20043;-94
2022/11/01 10:08:30;;;;;;;14.25;2.75;;;15.40;99.90;;;;;;4900266;29;20471;-92
2022/11/01 10:11:12;;;;;;;15.32;3.15;;;15.50;99.90;;;;;;4886751;29;20040;-91
2022/11/01 10:14:09;;;;;;;12.77;3.83;;;15.50;99.90;;;;;;4897637;29;20409;-90
2022/11/01 10:16:42;;;;;;;15.07;3.25;;;15.50;99.90;;;;;;4893984;29;20389;-94
2022/11/01 10:19:17;;;;;;;16.20;3.90;;;15.50;99.90;;;;;;4893096;29;20052;-95
2022/11/01 10:22:00;;;;;;;15.38;3.08;;;15.40;99.90;;;;;;4888276;29;20123;-90
2022/11/01 10:24:40;;;;;;;13.40;3.05;;;15.50;99.90;;;;;;4872404;29;20160;-94
2022/11/01 10:27:28;;;;;;;14.80;3.13;;;15.50;99.90;;;;;;4877295;29;20067;-93
2022/11/01 10:30:06;;;;;;;12.32;3.05;;;15.50;99.90;;;;;;4883967;29;20135;-95
2022/11/01 10:32:41;;;;;;;16.20;3.60;;;15.50;99.90;;;;;;4872311;29;20035;-92
2022/11/01 10:35:20;;;;;;;12.90;3.05;;;15.50;99.90;;;;;;4892042;29;20040;-92
2022/11/01 10:37:53;;;;;;;12.68;2.83;;;15.50;99.90;;;;;;4902536;29;20100;-91
2022/11/01 10:40:25;;;;;;;14.90;3.00;;;15.50;99.90;;;;;;4873091;29;20041;-93
2022/11/01 10:42:51;;;;;;;13.73;2.90;;;15.40;99.90;;;;;;4884330;29;20040;-91
2022/11/01 10:45:19;;;;;;;13.60;3.00;;;15.50;99.90;;;;;;4894275;29;20044;-93
2022/11/01 10:47:54;;;;;;;13.55;3.05;;;15.50;99.90;;;;;;4885329;29;20390;-95
2022/11/01 10:50:22;;;;;;;15.05;2.90;;;15.50;99.90;;;;;;4898623;29;20517;-96
2022/11/01 10:52:54;;;;;;;14.90;3.33;;;15.50;99.90;;;;;;4875398;29;20095;-93
2022/11/01 10:55:38;;;;;;;11.95;3.38;;;15.60;99.90;;;;;;4894868;29;20048;-92
2022/11/01 10:58:22;;;;;;;14.23;2.95;;;15.60;99.90;;;;;;4881064;29;20518;-92
2022/11/01 11:00:48;;;;;;;16.13;3.30;;;15.60;99.90;;;;;;4886207;29;20079;-93
2022/11/01 11:03:22;;;;;;;16.80;3.60;;;15.50;99.90;;;;;;4886935;29;20036;-94
2022/11/01 11:05:50;;;;;;;15.88;3.35;;;15.50;99.90;;;;;;4886884;29;20050;-94
2022/11/01 11:08:22;;;;;;;17.48;3.60;;;15.50;99.90;;;;;;4878033;29;20081;-96
2022/11/01 11:10:48;;;;;;;16.10;3.60;;;15.50;99.90;;;;;;4898445;29;20393;-94
2022/11/01 11:13:19;;;;;;;17.25;3.30;;;15.60;99.90;;;;;;4899890;29;20072;-90
2022/11/01 11:15:54;;;;;;;15.48;3.50;;;15.60;99.90;;;;;;4894492;29;20131;-90
2022/11/01 11:18:25;;;;;;;12.98;3.17;;;15.60;99.90;;;;;;4899698;29;20040;-92
2022/11/01 11:20:56;;;;;;;15.38;3.33;;;15.70;99.90;;;;;;4880170;29;20044;-94
2022/11/01 11:23:24;;;;;;;15.07;3.33;;;15.70;99.90;;;;;;4876292;29;20036;-90
2022/11/01 11:25:50;;;;;;;17.05;3.45;;;15.70;99.90;;;;;;4895514;29;20048;-90
2022/11/01 11:28:27;;;;;;;17.30;3.45;;;15.80;99.90;;;;;;4889599;29;20084;-92
2022/11/01 11:30:53;;;;;;;16.40;3.63;;;15.90;99.90;;;;;;4910218;29;20068;-92
2022/11/01 11:33:19;;;;;;;14.57;3.35;;;16.00;99.90;;;;;;4889736;29;20036;-93
2022/11/01 11:35:54;;;;;;;14.98;3.58;;;16.00;99.90;;;;;;4885883;29;20053;-92
2022/11/01 11:38:45;;;;;;;13.68;3.13;;;16.00;99.90;;;;;;4890814;29;20044;-91
2022/11/01 11:41:25;;;;;;;13.30;3.22;;;16.00;99.90;;;;;;4900340;29;20445;-92
2022/11/01 11:43:51;;;;;;;12.30;3.05;;;16.10;99.90;;;;;;4899225;29;20040;-93
2022/11/01 11:46:22;;;;;;;13.07;3.25;;;16.10;99.90;;;;;;4916341;29;20044;-93
2022/11/01 11:48:52;;;;;;;13.43;3.45;;;16.00;99.90;;;;;;4894878;29;20040;-93
2022/11/01 11:51:22;;;;;;;14.52;3.05;;;16.00;99.90;;;;;;4893354;29;20545;-94
2022/11/01 11:54:31;;;;;;;15.13;3.42;;;16.10;99.90;;;;;;4905037;29;20350;-92
2022/11/01 11:57:17;;;;;;;16.52;3.70;;;16.20;99.90;;;;;;4892393;29;20040;-95
2022/11/01 11:59:45;;;;;;;11.52;2.72;;;16.20;99.90;;;;;;4872176;29;20051;-91
2022/11/01 12:02:20;;;;;;;16.02;3.03;;;16.30;99.90;;;;;;4897682;29;20044;-92
2022/11/01 12:05:07;;;;;;;11.30;2.33;;;16.20;99.90;;;;;;4884214;29;20056;-93
2022/11/01 12:07:47;;;;;;;16.95;3.30;;;16.30;99.90;;;;;;4901105;29;20417;-96
2022/11/01 12:10:33;;;;;;;15.13;3.95;;;16.40;99.90;;;;;;4887118;29;20048;-92
2022/11/01 12:13:18;;;;;;;12.90;2.88;;;16.40;99.90;;;;;;4881414;29;20040;-94
2022/11/01 12:15:44;;;;;;;13.43;2.80;;;16.30;99.90;;;;;;4891979;29;20044;-93
2022/11/01 12:18:17;;;;;;;12.45;2.80;;;16.40;99.90;;;;;;4898331;29;20044;-91
2022/11/01 12:20:49;;;;;;;19.38;5.28;;;16.50;99.90;;;;;;4911399;29;20389;-89
2022/11/01 12:23:25;;;;;;;14.32;3.40;;;16.50;99.90;;;;;;4874445;29;20202;-93
2022/11/01 12:25:54;;;;;;;12.40;3.45;;;16.50;99.90;;;;;;4873531;29;20046;-95
2022/11/01 12:28:37;;;;;;;13.00;2.90;;;16.60;99.90;;;;;;4879820;29;20048;-93
2022/11/01 12:31:10;;;;;;;12.40;3.10;;;16.40;99.90;;;;;;4915839;29;20048;-94
2022/11/01 12:33:47;;;;;;;10.88;3.05;;;16.40;99.90;;;;;;4881921;29;20093;-93
2022/11/01 12:36:14;;;;;;;16.17;2.95;;;16.40;99.90;;;;;;4884399;29;20445;-92
2022/11/01 12:38:47;;;;;;;13.20;2.65;;;16.40;99.90;;;;;;4891108;29;20050;-92
2022/11/01 12:41:28;;;;;;;11.13;2.47;;;16.30;99.90;;;;;;4918656;29;20493;-94
2022/11/01 12:43:56;;;;;;;10.35;2.88;;;16.40;99.90;;;;;;4904099;29;20045;-94
2022/11/01 12:46:51;;;;;;;13.35;2.50;;;16.40;99.90;;;;;;4883311;29;20047;-92
2022/11/01 12:49:36;;;;;;;10.57;2.33;;;16.40;99.90;;;;;;4865068;29;20395;-93
2022/11/01 12:52:10;;;;;;;11.45;2.50;;;16.40;99.90;;;;;;4901633;29;20036;-93
2022/11/01 12:54:44;;;;;;;12.73;2.63;;;16.50;99.90;;;;;;4886231;29;20036;-91
2022/11/01 12:57:17;;;;;;;12.20;2.38;;;16.50;99.90;;;;;;4886280;29;20438;-93
2022/11/01 12:59:44;;;;;;;11.20;2.30;;;16.50;99.90;;;;;;4899917;29;20076;-92
2022/11/01 13:02:36;;;;;;;11.13;2.83;;;16.50;99.90;;;;;;4882683;29;20047;-94